Tullytown, Pennsylvania
Current Conditions -  °F | °C
As of 9:54 PM on Thursday 27 Nov 2014 (Local Time) from KPNE Reporting Station
Clear Clear  
Wind Chill: 28°   Ceiling: Unl
Heat Index: 33°   Visibility: 10mi
Dew Point: 24°   Wind: 6mph
Humidity: 70%   Direction: 290°WNW
Pressure: 30.12"   Gusts: NA
Location:  40.1156°N, 74.8582°W
Report Text: KPNE 280254Z AUTO 29005KT 10SM CLR 01/M04 A3012 RMK AO2 SLP201 T00061044 51012 TSNO
Loading
Personal Weather Stations






























Interactive Weather Map New forecast layout! Learn more

10-Day Weather Forecast

Advertisements
Track Severe Weather on mobile